createdAt,value
2018-03-16T00:00:17.385Z,9.23
2018-03-16T00:02:45.535Z,9.25
2018-03-16T00:05:13.656Z,9.23
2018-03-16T00:07:41.792Z,9.28
2018-03-16T00:10:09.932Z,9.26
2018-03-16T00:12:38.075Z,9.24
2018-03-16T00:15:06.212Z,9.27
2018-03-16T00:17:34.344Z,9.25
2018-03-16T00:20:02.479Z,9.04
2018-03-16T00:22:38.556Z,9.14
2018-03-16T00:25:06.684Z,9.16
2018-03-16T00:27:34.814Z,9.21
2018-03-16T00:30:02.937Z,9.03
2018-03-16T00:32:31.085Z,9.17
2018-03-16T00:34:59.231Z,9.18
2018-03-16T00:37:27.383Z,9.19
2018-03-16T00:39:55.510Z,9.14
2018-03-16T00:42:23.678Z,9.07
2018-03-16T00:44:51.810Z,9.09
2018-03-16T00:47:19.970Z,9.17
2018-03-16T00:49:48.088Z,9.16
2018-03-16T00:52:16.239Z,9.16
2018-03-16T00:54:44.389Z,9.08
2018-03-16T00:57:12.514Z,9.03
2018-03-16T00:59:40.644Z,9.06
2018-03-16T01:02:08.780Z,8.99
2018-03-16T01:04:36.933Z,8.84
2018-03-16T01:07:05.068Z,8.98
2018-03-16T01:09:33.186Z,9.05
2018-03-16T01:12:01.318Z,9.08
2018-03-16T01:14:29.481Z,9.11
2018-03-16T01:16:57.701Z,9.10
2018-03-16T01:19:25.843Z,9.12
2018-03-16T01:21:53.998Z,9.11
2018-03-16T01:24:22.125Z,9.09
2018-03-16T01:26:50.283Z,9.14
2018-03-16T01:29:18.419Z,9.07
2018-03-16T01:31:46.560Z,9.14
2018-03-16T01:34:14.691Z,9.07
2018-03-16T01:36:42.849Z,9.18
2018-03-16T01:39:10.987Z,9.09
2018-03-16T01:41:39.134Z,9.06
2018-03-16T01:44:07.277Z,9.05
2018-03-16T01:46:35.417Z,9.03
2018-03-16T01:49:03.720Z,9.01
2018-03-16T01:51:31.922Z,9.07
2018-03-16T01:54:00.044Z,9.02
2018-03-16T01:56:28.181Z,9.00
2018-03-16T01:58:56.327Z,9.00
2018-03-16T02:01:24.477Z,8.99
2018-03-16T02:03:52.622Z,8.89
2018-03-16T02:06:20.802Z,8.94
2018-03-16T02:08:48.965Z,8.98
2018-03-16T02:11:17.087Z,9.00
2018-03-16T02:13:45.258Z,9.00
2018-03-16T02:16:13.399Z,8.95
2018-03-16T02:18:41.511Z,8.95
2018-03-16T02:21:09.634Z,8.98
2018-03-16T02:23:37.764Z,8.99
2018-03-16T02:26:05.882Z,8.98
2018-03-16T02:28:34.044Z,8.95
2018-03-16T02:31:02.201Z,8.91
2018-03-16T02:33:30.325Z,8.94
2018-03-16T02:35:58.483Z,8.93
2018-03-16T02:38:26.634Z,8.97
2018-03-16T02:40:55.021Z,8.96
2018-03-16T02:43:23.173Z,8.90
2018-03-16T02:45:51.306Z,8.95
2018-03-16T02:48:19.425Z,8.95
2018-03-16T02:50:47.556Z,8.96
2018-03-16T02:53:15.680Z,8.92
2018-03-16T02:55:43.835Z,8.92
2018-03-16T02:58:11.976Z,8.93
2018-03-16T03:00:40.124Z,8.91
2018-03-16T03:03:08.257Z,8.82
2018-03-16T03:05:36.389Z,8.85
2018-03-16T03:08:04.531Z,8.87
2018-03-16T03:10:32.672Z,8.85
2018-03-16T03:13:00.834Z,8.77
2018-03-16T03:15:28.960Z,8.87
2018-03-16T03:17:57.101Z,8.92
2018-03-16T03:20:25.235Z,8.92
2018-03-16T03:22:53.366Z,8.88
2018-03-16T03:25:21.499Z,8.89
2018-03-16T03:27:49.619Z,8.90
2018-03-16T03:30:20.874Z,8.91
2018-03-16T03:32:49.116Z,8.83
2018-03-16T03:35:17.251Z,8.85
2018-03-16T03:37:45.387Z,8.72
2018-03-16T03:40:13.529Z,8.81
2018-03-16T03:42:41.758Z,8.86
2018-03-16T03:45:09.926Z,8.86
2018-03-16T03:47:38.060Z,8.88
2018-03-16T03:50:06.188Z,8.91
2018-03-16T03:52:34.338Z,8.86
2018-03-16T03:55:02.468Z,8.77
2018-03-16T03:57:30.615Z,8.83
2018-03-16T03:59:58.747Z,8.81
2018-03-16T04:02:26.895Z,8.78
2018-03-16T04:04:55.038Z,8.74
2018-03-16T04:07:23.162Z,8.76
2018-03-16T04:09:51.308Z,8.76
2018-03-16T04:12:19.426Z,8.74
2018-03-16T04:14:47.619Z,8.76
2018-03-16T04:17:15.841Z,8.76
2018-03-16T04:19:43.972Z,8.80
2018-03-16T04:22:12.153Z,8.73
2018-03-16T04:24:40.297Z,8.72
2018-03-16T04:27:08.450Z,8.64
2018-03-16T04:29:36.586Z,8.72
2018-03-16T04:32:04.720Z,8.78
2018-03-16T04:34:32.835Z,8.75
2018-03-16T04:37:00.982Z,8.78
2018-03-16T04:39:29.105Z,8.80
2018-03-16T04:41:57.231Z,8.78
2018-03-16T04:44:25.385Z,8.81
2018-03-16T04:46:53.535Z,8.77
2018-03-16T04:49:21.655Z,8.76
2018-03-16T04:51:49.801Z,8.86
2018-03-16T04:54:17.968Z,8.85
2018-03-16T04:56:46.996Z,8.78
2018-03-16T04:59:15.119Z,8.68
2018-03-16T05:01:43.267Z,8.73
2018-03-16T05:04:11.499Z,8.62
2018-03-16T05:06:39.599Z,8.71
2018-03-16T05:09:07.904Z,8.70
2018-03-16T05:11:36.054Z,8.74
2018-03-16T05:14:04.192Z,8.75
2018-03-16T05:16:32.353Z,8.71
2018-03-16T05:19:00.500Z,8.81
2018-03-16T05:21:28.803Z,8.79
2018-03-16T05:23:56.960Z,8.76
2018-03-16T05:26:25.111Z,8.67
2018-03-16T05:28:53.250Z,8.60
2018-03-16T05:31:21.390Z,8.71
2018-03-16T05:33:49.514Z,8.71
2018-03-16T05:36:17.656Z,8.68
2018-03-16T05:38:45.780Z,8.68
2018-03-16T05:41:13.939Z,8.67
2018-03-16T05:43:42.059Z,8.76
2018-03-16T05:46:10.199Z,8.80
2018-03-16T05:48:38.350Z,8.72
2018-03-16T05:51:06.501Z,8.71
2018-03-16T05:53:34.648Z,8.75
2018-03-16T05:56:02.793Z,8.75
2018-03-16T05:58:30.939Z,8.73
2018-03-16T06:00:59.073Z,8.69
2018-03-16T06:03:27.232Z,8.65
2018-03-16T06:05:55.387Z,8.68
2018-03-16T06:08:23.513Z,8.71
2018-03-16T06:10:51.726Z,8.71
2018-03-16T06:13:20.350Z,8.43
2018-03-16T06:15:48.495Z,8.53
2018-03-16T06:18:16.633Z,8.50
2018-03-16T06:20:44.773Z,8.41
2018-03-16T06:23:12.902Z,8.38
2018-03-16T06:25:41.032Z,8.39
2018-03-16T06:28:09.188Z,8.57
2018-03-16T06:30:37.330Z,8.42
2018-03-16T06:33:05.486Z,8.26
2018-03-16T06:35:33.643Z,8.43
2018-03-16T06:38:01.804Z,8.26
2018-03-16T06:40:29.959Z,8.36
2018-03-16T06:42:58.097Z,8.38
2018-03-16T06:45:26.295Z,8.42
2018-03-16T06:47:54.455Z,8.37
2018-03-16T06:50:22.604Z,8.27
2018-03-16T06:52:50.746Z,8.30
2018-03-16T06:55:18.886Z,8.26
2018-03-16T06:57:47.015Z,8.03
2018-03-16T07:00:15.184Z,8.19
2018-03-16T07:02:43.309Z,8.23
2018-03-16T07:05:11.464Z,8.29
2018-03-16T07:07:40.602Z,8.16
2018-03-16T07:10:08.742Z,8.30
2018-03-16T07:12:36.873Z,8.35
2018-03-16T07:15:16.893Z,8.53
2018-03-16T07:17:45.034Z,8.42
2018-03-16T07:20:13.200Z,8.30
2018-03-16T07:22:41.357Z,8.34
2018-03-16T07:25:09.493Z,8.41
2018-03-16T07:27:37.641Z,8.36
2018-03-16T07:30:05.790Z,8.44
2018-03-16T07:32:33.942Z,8.35
2018-03-16T07:35:05.112Z,8.35
2018-03-16T07:37:33.231Z,8.48
2018-03-16T07:40:01.378Z,8.31
2018-03-16T07:42:32.837Z,8.09
2018-03-16T07:45:00.961Z,7.78
2018-03-16T07:47:29.117Z,8.13
2018-03-16T07:49:57.278Z,8.09
2018-03-16T07:52:25.394Z,7.96
2018-03-16T07:54:53.527Z,8.10
2018-03-16T07:57:21.657Z,8.03
2018-03-16T07:59:49.813Z,8.10
2018-03-16T08:02:17.952Z,7.98
2018-03-16T08:04:46.072Z,8.08
2018-03-16T08:07:14.216Z,8.10
2018-03-16T08:09:42.377Z,8.00
2018-03-16T08:12:10.504Z,8.34
2018-03-16T08:14:38.641Z,8.50
2018-03-16T08:17:06.772Z,8.50
2018-03-16T08:19:34.976Z,8.43
2018-03-16T08:22:03.098Z,8.64
2018-03-16T08:24:31.254Z,8.48
2018-03-16T08:26:59.404Z,8.53
2018-03-16T08:29:27.535Z,8.62
2018-03-16T08:31:55.688Z,8.63
2018-03-16T08:34:23.860Z,8.49
2018-03-16T08:36:51.999Z,8.37
2018-03-16T08:39:20.122Z,8.49
2018-03-16T08:41:48.261Z,8.52
2018-03-16T08:44:16.398Z,8.62
2018-03-16T08:46:44.980Z,8.05
2018-03-16T08:49:13.112Z,7.92
2018-03-16T08:51:41.272Z,8.29
2018-03-16T08:54:09.397Z,8.35
2018-03-16T08:56:37.527Z,8.17
2018-03-16T08:59:05.659Z,8.16
2018-03-16T09:01:33.807Z,8.30
2018-03-16T09:04:01.984Z,8.08
2018-03-16T09:06:30.110Z,8.15
2018-03-16T09:08:58.270Z,7.92
2018-03-16T09:11:26.401Z,8.11
2018-03-16T09:13:54.546Z,8.22
2018-03-16T09:16:22.682Z,8.32
2018-03-16T09:18:50.817Z,8.27
2018-03-16T09:21:18.957Z,8.40
2018-03-16T09:23:47.086Z,8.19
2018-03-16T09:26:15.228Z,8.01
2018-03-16T09:28:44.250Z,8.07
2018-03-16T09:31:12.393Z,7.79
2018-03-16T09:33:40.517Z,7.85
2018-03-16T09:36:08.640Z,7.96
2018-03-16T09:38:37.002Z,8.00
2018-03-16T09:41:05.400Z,7.88
2018-03-16T09:43:34.049Z,7.76
2018-03-16T09:46:02.183Z,8.05
2018-03-16T09:48:30.592Z,8.16
2018-03-16T09:50:58.735Z,8.14
2018-03-16T09:53:29.826Z,7.86
2018-03-16T09:55:57.950Z,7.93
2018-03-16T09:58:26.103Z,7.80
2018-03-16T10:00:54.579Z,7.67
2018-03-16T10:03:22.734Z,7.75
2018-03-16T10:05:50.873Z,7.77
2018-03-16T10:08:19.002Z,7.79
2018-03-16T10:10:47.160Z,7.93
2018-03-16T10:13:15.279Z,7.84
2018-03-16T10:15:43.403Z,7.59
2018-03-16T10:18:11.541Z,7.51
2018-03-16T10:20:39.704Z,7.56
2018-03-16T10:23:07.833Z,7.45
2018-03-16T10:25:36.008Z,7.50
2018-03-16T10:28:04.231Z,7.47
2018-03-16T10:30:32.368Z,7.51
2018-03-16T10:33:00.539Z,7.55
2018-03-16T10:35:28.666Z,7.28
2018-03-16T10:37:56.842Z,7.43
2018-03-16T10:40:24.990Z,7.23
2018-03-16T10:42:53.142Z,7.55
2018-03-16T10:45:21.287Z,7.45
2018-03-16T10:47:49.421Z,7.63
2018-03-16T10:50:17.560Z,7.57
2018-03-16T10:52:45.692Z,7.65
2018-03-16T10:55:13.833Z,7.56
2018-03-16T10:57:41.966Z,7.48
2018-03-16T11:00:14.335Z,7.70
2018-03-16T11:02:48.025Z,7.54
2018-03-16T11:05:19.012Z,7.56
2018-03-16T11:08:01.907Z,7.71
2018-03-16T11:10:30.047Z,7.64
2018-03-16T11:12:58.173Z,7.49
2018-03-16T11:15:26.325Z,7.61
2018-03-16T11:17:55.371Z,7.65
2018-03-16T11:20:23.493Z,7.76
2018-03-16T11:22:51.637Z,7.68
2018-03-16T11:25:19.775Z,7.74
2018-03-16T11:27:47.923Z,7.53
2018-03-16T11:30:16.049Z,7.57
2018-03-16T11:32:44.199Z,7.66
2018-03-16T11:35:12.332Z,7.95
2018-03-16T11:37:40.456Z,7.44
2018-03-16T11:40:08.591Z,7.76
2018-03-16T11:42:36.747Z,7.59
2018-03-16T11:45:05.024Z,7.78
2018-03-16T11:47:34.114Z,7.69
2018-03-16T11:50:05.360Z,7.86
2018-03-16T11:52:33.484Z,7.83
2018-03-16T11:55:01.718Z,7.74
2018-03-16T11:57:29.885Z,7.87
2018-03-16T11:59:58.029Z,7.65
2018-03-16T12:02:26.171Z,7.95
2018-03-16T12:04:54.303Z,8.12
2018-03-16T12:07:22.441Z,8.21
2018-03-16T12:09:50.581Z,8.02
2018-03-16T12:12:18.704Z,8.26
2018-03-16T12:14:46.839Z,8.08
2018-03-16T12:17:14.976Z,7.92
2018-03-16T12:19:43.160Z,7.80
2018-03-16T12:22:11.281Z,7.86
2018-03-16T12:24:39.410Z,7.82
2018-03-16T12:27:07.579Z,8.14
2018-03-16T12:29:35.719Z,8.05
2018-03-16T12:32:03.850Z,7.90
2018-03-16T12:34:31.989Z,8.06
2018-03-16T12:37:00.110Z,8.18
2018-03-16T12:39:28.249Z,8.13
2018-03-16T12:41:56.395Z,8.52
2018-03-16T12:44:24.537Z,8.43
2018-03-16T12:46:52.664Z,8.16
2018-03-16T12:49:20.809Z,7.96
2018-03-16T12:51:48.949Z,7.87
2018-03-16T12:54:17.089Z,8.01
2018-03-16T12:56:45.248Z,8.34
2018-03-16T12:59:13.466Z,8.29
2018-03-16T13:01:41.675Z,8.25
2018-03-16T13:04:09.779Z,8.28
2018-03-16T13:06:37.947Z,8.12
2018-03-16T13:09:06.077Z,8.12
2018-03-16T13:11:34.283Z,7.93
2018-03-16T13:14:02.426Z,8.05
2018-03-16T13:16:30.560Z,8.11
2018-03-16T13:18:58.698Z,8.11
2018-03-16T13:21:26.859Z,8.22
2018-03-16T13:23:54.998Z,7.84
2018-03-16T13:26:23.145Z,7.83
2018-03-16T13:28:51.272Z,7.75
2018-03-16T13:31:19.415Z,7.92
2018-03-16T13:33:47.555Z,7.48
2018-03-16T13:36:15.693Z,7.60
2018-03-16T13:38:43.850Z,7.62
2018-03-16T13:41:11.996Z,7.70
2018-03-16T13:43:40.123Z,7.54
2018-03-16T13:46:08.277Z,7.58
2018-03-16T13:48:36.413Z,7.96
2018-03-16T13:51:04.567Z,7.73
2018-03-16T13:53:32.691Z,7.77
2018-03-16T13:56:00.850Z,7.69
2018-03-16T13:58:28.983Z,7.53
2018-03-16T14:00:57.128Z,7.58
2018-03-16T14:03:25.280Z,7.45
2018-03-16T14:05:53.427Z,7.23
2018-03-16T14:08:21.584Z,7.10
2018-03-16T14:10:49.735Z,7.11
2018-03-16T14:13:17.869Z,7.28
2018-03-16T14:15:45.992Z,7.31
2018-03-16T14:18:14.153Z,7.32
2018-03-16T14:20:42.297Z,7.64
2018-03-16T14:23:10.452Z,7.55
2018-03-16T14:25:38.583Z,7.50
2018-03-16T14:28:06.740Z,7.27
2018-03-16T14:30:34.874Z,7.22
2018-03-16T14:33:03.023Z,7.13
2018-03-16T14:35:31.165Z,7.16
2018-03-16T14:37:59.310Z,7.30
2018-03-16T14:40:27.439Z,7.34
2018-03-16T14:42:55.583Z,7.63
2018-03-16T14:45:23.741Z,7.66
2018-03-16T14:47:51.884Z,7.16
2018-03-16T14:50:20.040Z,7.08
2018-03-16T14:52:48.177Z,6.71
2018-03-16T14:55:16.332Z,7.16
2018-03-16T14:57:44.491Z,6.91
2018-03-16T15:00:12.647Z,7.04
2018-03-16T15:02:40.789Z,6.94
2018-03-16T15:05:09.012Z,6.97
2018-03-16T15:07:37.139Z,7.07
2018-03-16T15:10:05.321Z,6.73
2018-03-16T15:12:33.423Z,6.73
2018-03-16T15:15:01.566Z,6.59
2018-03-16T15:17:29.733Z,6.60
2018-03-16T15:19:57.877Z,6.31
2018-03-16T15:22:26.029Z,6.66
2018-03-16T15:24:54.169Z,6.59
2018-03-16T15:27:22.423Z,6.39
2018-03-16T15:29:50.525Z,6.31
2018-03-16T15:32:18.669Z,6.46
2018-03-16T15:34:47.736Z,6.37
2018-03-16T15:37:15.862Z,6.16
2018-03-16T15:39:44.023Z,5.95
2018-03-16T15:42:12.154Z,6.09
2018-03-16T15:44:40.314Z,6.01
2018-03-16T15:47:08.481Z,5.93
2018-03-16T15:49:36.609Z,6.12
2018-03-16T15:52:04.749Z,6.18
2018-03-16T15:54:32.963Z,5.87
2018-03-16T15:57:01.122Z,6.12
2018-03-16T15:59:29.277Z,5.82
2018-03-16T16:01:57.395Z,5.93
2018-03-16T16:04:25.577Z,6.05
2018-03-16T16:06:53.685Z,5.78
2018-03-16T16:09:21.840Z,5.86
2018-03-16T16:11:50.001Z,5.76
2018-03-16T16:14:18.145Z,5.69
2018-03-16T16:16:46.281Z,5.53
2018-03-16T16:19:14.431Z,5.70
2018-03-16T16:21:42.592Z,5.81
2018-03-16T16:24:10.728Z,5.45
2018-03-16T16:26:39.020Z,5.47
2018-03-16T16:29:07.038Z,5.45
2018-03-16T16:31:35.177Z,5.58
2018-03-16T16:34:03.321Z,5.25
2018-03-16T16:36:31.449Z,5.35
2018-03-16T16:38:59.604Z,5.15
2018-03-16T16:41:27.731Z,5.25
2018-03-16T16:43:55.888Z,5.07
2018-03-16T16:46:24.063Z,5.19
2018-03-16T16:48:52.202Z,5.19
2018-03-16T16:51:20.346Z,5.23
2018-03-16T16:53:48.481Z,5.11
2018-03-16T16:56:16.638Z,5.32
2018-03-16T16:58:44.794Z,5.25
2018-03-16T17:01:12.932Z,5.37
2018-03-16T17:03:41.064Z,5.08
2018-03-16T17:06:09.219Z,5.23
2018-03-16T17:08:37.411Z,5.31
2018-03-16T17:11:05.554Z,5.00
2018-03-16T17:13:33.700Z,5.28
2018-03-16T17:16:01.830Z,4.99
2018-03-16T17:18:29.973Z,5.16
2018-03-16T17:20:58.123Z,5.18
2018-03-16T17:23:29.369Z,4.92
2018-03-16T17:25:57.487Z,4.99
2018-03-16T17:28:25.616Z,4.89
2018-03-16T17:30:53.862Z,5.00
2018-03-16T17:33:21.983Z,4.72
2018-03-16T17:35:50.125Z,4.88
2018-03-16T17:38:21.301Z,5.04
2018-03-16T17:40:49.592Z,4.77
2018-03-16T17:43:17.741Z,4.92
2018-03-16T17:45:45.896Z,4.69
2018-03-16T17:48:14.037Z,4.73
2018-03-16T17:50:42.182Z,4.82
2018-03-16T17:53:10.317Z,4.52
2018-03-16T17:55:38.453Z,4.40
2018-03-16T17:58:06.598Z,4.43
2018-03-16T18:00:34.777Z,4.36
2018-03-16T18:03:02.923Z,4.61
2018-03-16T18:05:31.065Z,4.48
2018-03-16T18:07:59.288Z,4.40
2018-03-16T18:10:27.430Z,4.62
2018-03-16T18:12:55.604Z,4.44
2018-03-16T18:15:23.796Z,4.53
2018-03-16T18:17:51.933Z,4.26
2018-03-16T18:20:20.089Z,4.28
2018-03-16T18:22:48.218Z,4.36
2018-03-16T18:25:16.362Z,4.34
2018-03-16T18:27:44.482Z,4.44
2018-03-16T18:30:12.629Z,4.52
2018-03-16T18:32:40.881Z,4.13
2018-03-16T18:35:09.040Z,3.99
2018-03-16T18:37:37.200Z,4.21
2018-03-16T18:40:05.397Z,4.26
2018-03-16T18:42:33.549Z,4.33
2018-03-16T18:45:01.687Z,4.34
2018-03-16T18:47:29.829Z,4.21
2018-03-16T18:49:57.990Z,4.39
2018-03-16T18:52:26.117Z,4.34
2018-03-16T18:54:54.238Z,3.89
2018-03-16T18:57:22.397Z,3.92
2018-03-16T18:59:50.540Z,4.18
2018-03-16T19:02:18.659Z,3.93
2018-03-16T19:04:46.823Z,4.15
2018-03-16T19:07:14.957Z,4.07
2018-03-16T19:09:43.117Z,4.05
2018-03-16T19:12:11.235Z,4.09
2018-03-16T19:14:39.398Z,4.26
2018-03-16T19:17:07.533Z,3.89
2018-03-16T19:19:35.726Z,3.78
2018-03-16T19:22:03.829Z,3.89
2018-03-16T19:24:31.983Z,3.72
2018-03-16T19:27:00.131Z,3.86
2018-03-16T19:29:28.260Z,3.63
2018-03-16T19:31:56.409Z,4.08
2018-03-16T19:34:24.549Z,4.22
2018-03-16T19:36:52.685Z,3.71
2018-03-16T19:39:21.253Z,3.67
2018-03-16T19:41:52.718Z,3.56
2018-03-16T19:44:20.866Z,3.50
2018-03-16T19:46:49.002Z,3.50
2018-03-16T19:49:17.153Z,3.51
2018-03-16T19:51:45.291Z,3.60
2018-03-16T19:54:13.487Z,3.42
2018-03-16T19:56:41.612Z,3.34
2018-03-16T19:59:09.763Z,3.55
2018-03-16T20:01:37.911Z,3.68
2018-03-16T20:04:06.056Z,3.77
2018-03-16T20:06:34.212Z,3.50
2018-03-16T20:09:02.346Z,3.36
2018-03-16T20:11:30.482Z,3.57
2018-03-16T20:13:58.603Z,3.51
2018-03-16T20:16:26.766Z,3.41
2018-03-16T20:18:54.894Z,3.40
2018-03-16T20:21:23.023Z,3.40
2018-03-16T20:23:51.175Z,3.64
2018-03-16T20:26:19.330Z,3.63
2018-03-16T20:28:47.703Z,3.27
2018-03-16T20:31:15.852Z,3.50
2018-03-16T20:33:43.991Z,3.17
2018-03-16T20:36:12.147Z,3.51
2018-03-16T20:38:40.281Z,3.41
2018-03-16T20:41:08.436Z,3.34
2018-03-16T20:43:36.583Z,3.33
2018-03-16T20:46:04.712Z,3.28
2018-03-16T20:48:32.878Z,3.42
2018-03-16T20:51:01.000Z,4.02
2018-03-16T20:53:29.144Z,3.38
2018-03-16T20:55:57.359Z,3.58
2018-03-16T20:58:25.590Z,3.37
2018-03-16T21:00:53.835Z,3.27
2018-03-16T21:03:22.035Z,3.34
2018-03-16T21:05:50.292Z,3.21
2018-03-16T21:08:18.459Z,3.36
2018-03-16T21:10:46.581Z,3.11
2018-03-16T21:13:14.742Z,3.13
2018-03-16T21:15:42.873Z,3.27
2018-03-16T21:18:11.056Z,2.93
2018-03-16T21:20:39.208Z,3.20
2018-03-16T21:23:07.348Z,3.10
2018-03-16T21:25:35.512Z,2.93
2018-03-16T21:28:03.637Z,3.10
2018-03-16T21:30:31.816Z,3.05
2018-03-16T21:32:59.961Z,3.16
2018-03-16T21:35:28.193Z,3.00
2018-03-16T21:37:56.343Z,2.98
2018-03-16T21:40:24.485Z,3.00
2018-03-16T21:42:52.623Z,2.97
2018-03-16T21:45:20.762Z,3.00
2018-03-16T21:47:48.920Z,3.10
2018-03-16T21:50:17.058Z,2.94
2018-03-16T21:52:45.206Z,3.00
2018-03-16T21:55:13.555Z,2.98
2018-03-16T21:57:41.858Z,2.99
2018-03-16T22:00:10.139Z,2.87
2018-03-16T22:02:38.304Z,2.98
2018-03-16T22:05:06.423Z,2.94
2018-03-16T22:07:34.557Z,2.91
2018-03-16T22:10:02.708Z,2.88
2018-03-16T22:12:30.893Z,3.03
2018-03-16T22:14:59.083Z,2.92
2018-03-16T22:17:27.208Z,2.91
2018-03-16T22:19:55.389Z,2.77
2018-03-16T22:22:27.292Z,2.77
2018-03-16T22:24:55.428Z,2.70
2018-03-16T22:27:23.564Z,2.63
2018-03-16T22:29:51.689Z,2.70
2018-03-16T22:32:19.831Z,3.11
2018-03-16T22:34:48.116Z,2.90
2018-03-16T22:37:16.233Z,2.97
2018-03-16T22:39:44.366Z,2.90
2018-03-16T22:42:12.498Z,2.88
2018-03-16T22:44:40.628Z,2.67
2018-03-16T22:47:08.808Z,2.79
2018-03-16T22:49:37.496Z,2.70
2018-03-16T22:52:05.691Z,3.06
2018-03-16T22:54:33.805Z,2.65
2018-03-16T22:57:01.953Z,2.66
2018-03-16T22:59:30.067Z,2.63
2018-03-16T23:01:58.203Z,2.82
2018-03-16T23:04:26.336Z,2.62
2018-03-16T23:06:54.464Z,2.89
2018-03-16T23:09:22.595Z,2.67
2018-03-16T23:11:50.765Z,2.60
2018-03-16T23:14:18.899Z,2.84
2018-03-16T23:16:47.031Z,2.48
2018-03-16T23:19:15.160Z,2.50
2018-03-16T23:21:43.288Z,2.55
2018-03-16T23:24:11.427Z,2.66
2018-03-16T23:26:39.544Z,2.52
2018-03-16T23:29:07.671Z,2.53
2018-03-16T23:31:35.807Z,2.44
2018-03-16T23:34:03.939Z,2.41
2018-03-16T23:36:32.095Z,2.35
2018-03-16T23:39:00.195Z,2.47
2018-03-16T23:41:28.335Z,2.37
2018-03-16T23:43:56.462Z,2.29
2018-03-16T23:46:24.588Z,2.21
2018-03-16T23:48:52.711Z,2.18
2018-03-16T23:51:20.836Z,2.37
2018-03-16T23:53:48.971Z,2.16
2018-03-16T23:56:17.091Z,2.21
2018-03-16T23:58:45.222Z,1.99
